Time;durP1;ratioP1;P1;durP2;ratioP2;P2;SDS_P1;SDS_P2;PMS_P1;PMS_P2;Temp;Humidity;BMP_temperature;BMP_pressure;BME280_temperature;BME280_humidity;BME280_pressure;Samples;Min_cycle;Max_cycle;Signal;HPM_P1;HPM_P2
2022/03/24 00:01:46;;;;;;;;;;;6.50;99.90;;;;;;5045080;28;20024;-61
2022/03/24 00:04:12;;;;;;;;;;;6.50;99.90;;;;;;5061077;28;19962;-61
2022/03/24 00:06:38;;;;;;;;;;;6.40;99.90;;;;;;5061150;28;19963;-60
2022/03/24 00:09:04;;;;;;;;;;;6.30;99.90;;;;;;5057625;28;20366;-61
2022/03/24 00:11:30;;;;;;;;;;;6.30;99.90;;;;;;5042078;28;20003;-61
2022/03/24 00:13:56;;;;;;;;;;;6.20;99.90;;;;;;5059536;28;20006;-61
2022/03/24 00:16:21;;;;;;;;;;;6.10;99.90;;;;;;5061483;28;19916;-60
2022/03/24 00:18:47;;;;;;;;;;;6.10;99.90;;;;;;5040465;28;19931;-62
2022/03/24 00:21:14;;;;;;;;;;;6.10;99.90;;;;;;5060578;28;20002;-60
2022/03/24 00:23:39;;;;;;;;;;;6.00;99.90;;;;;;5061257;28;19924;-61
2022/03/24 00:26:05;;;;;;;;;;;6.00;99.90;;;;;;5059133;28;19909;-62
2022/03/24 00:28:33;;;;;;;;;;;6.00;99.90;;;;;;5061878;28;20011;-62
2022/03/24 00:30:59;;;;;;;;;;;6.00;99.90;;;;;;5060687;28;19913;-60
2022/03/24 00:33:25;;;;;;;;;;;5.90;99.90;;;;;;5056229;28;19908;-61
2022/03/24 00:35:51;;;;;;;;;;;5.90;99.90;;;;;;5065767;28;20018;-61
2022/03/24 00:38:16;;;;;;;;;;;5.90;99.90;;;;;;5058849;28;19908;-61
2022/03/24 00:40:42;;;;;;;;;;;5.80;99.90;;;;;;5060448;28;19909;-60
2022/03/24 00:43:08;;;;;;;;;;;5.80;99.90;;;;;;5058621;28;20381;-60
2022/03/24 00:45:34;;;;;;;;;;;5.80;99.90;;;;;;5059791;28;19908;-61
2022/03/24 00:47:59;;;;;;;;;;;5.80;99.90;;;;;;5058715;28;19917;-61
2022/03/24 00:50:25;;;;;;;;;;;5.80;99.90;;;;;;5060647;28;20401;-62
2022/03/24 00:52:51;;;;;;;;;;;5.80;99.90;;;;;;5058313;28;19909;-61
2022/03/24 00:55:18;;;;;;;;;;;5.70;99.90;;;;;;5056023;28;19909;-60
2022/03/24 00:57:44;;;;;;;;;;;5.70;99.90;;;;;;5061814;28;20265;-61
2022/03/24 01:00:15;;;;;;;;;;;5.80;99.90;;;;;;5039824;28;19916;-62
2022/03/24 01:02:41;;;;;;;;;;;5.70;99.90;;;;;;5059402;28;19913;-61
2022/03/24 01:05:07;;;;;;;;;;;5.60;99.90;;;;;;5058674;28;19952;-61
2022/03/24 01:07:34;;;;;;;;;;;5.50;99.90;;;;;;5056757;28;20015;-61
2022/03/24 01:09:59;;;;;;;;;;;5.50;99.90;;;;;;5058776;28;19920;-61
2022/03/24 01:12:25;;;;;;;;;;;5.50;99.90;;;;;;5058051;28;19909;-61
2022/03/24 01:14:50;;;;;;;;;;;5.50;99.90;;;;;;5058720;28;20004;-61
2022/03/24 01:17:18;;;;;;;;;;;5.50;99.90;;;;;;5059091;28;19913;-61
2022/03/24 01:19:44;;;;;;;;;;;5.40;99.90;;;;;;5058044;28;19954;-61
2022/03/24 01:22:10;;;;;;;;;;;5.50;99.90;;;;;;5064621;28;19972;-60
2022/03/24 01:24:38;;;;;;;;;;;5.40;99.90;;;;;;5053257;28;20030;-61
2022/03/24 01:27:04;;;;;;;;;;;5.40;99.90;;;;;;5063413;28;19916;-61
2022/03/24 01:29:30;;;;;;;;;;;5.40;99.90;;;;;;5061902;28;19995;-62
2022/03/24 01:31:56;;;;;;;;;;;5.40;99.90;;;;;;5057540;28;20384;-61
2022/03/24 01:34:22;;;;;;;;;;;5.30;99.90;;;;;;5059918;28;19951;-61
2022/03/24 01:36:47;;;;;;;;;;;5.30;99.90;;;;;;5058138;28;19947;-61
2022/03/24 01:39:13;;;;;;;;;;;5.30;99.90;;;;;;5061213;28;19915;-61
2022/03/24 01:41:40;;;;;;;;;;;5.30;99.90;;;;;;5063773;28;19987;-60
2022/03/24 01:44:13;;;;;;;;;;;5.30;99.90;;;;;;5060569;28;19908;-62
2022/03/24 01:46:39;;;;;;;;;;;5.30;99.90;;;;;;5057145;28;19909;-61
2022/03/24 01:49:05;;;;;;;;;;;5.30;99.90;;;;;;5058956;28;19913;-61
2022/03/24 01:51:30;;;;;;;;;;;5.20;99.90;;;;;;5057361;28;19995;-61
2022/03/24 01:53:59;;;;;;;;;;;5.10;99.90;;;;;;5038127;28;20358;-64
2022/03/24 01:56:26;;;;;;;;;;;5.00;99.90;;;;;;5056303;28;19908;-61
2022/03/24 01:58:51;;;;;;;;;;;5.00;99.90;;;;;;5059524;28;19983;-61
2022/03/24 02:01:27;;;;;;;;;;;4.90;99.90;;;;;;5058080;28;19952;-61
2022/03/24 02:03:54;;;;;;;;;;;4.80;99.90;;;;;;5058816;28;19916;-60
2022/03/24 02:06:19;;;;;;;;;;;4.90;99.90;;;;;;5058390;28;19912;-61
2022/03/24 02:08:45;;;;;;;;;;;4.90;99.90;;;;;;5055464;28;19930;-60
2022/03/24 02:11:11;;;;;;;;;;;5.00;99.90;;;;;;5062439;28;19971;-61
2022/03/24 02:13:36;;;;;;;;;;;4.90;99.90;;;;;;5059479;28;19908;-61
2022/03/24 02:16:07;;;;;;;;;;;4.80;99.90;;;;;;5055107;28;20355;-62
2022/03/24 02:18:34;;;;;;;;;;;4.70;99.90;;;;;;5058219;28;19909;-61
2022/03/24 02:21:00;;;;;;;;;;;4.60;99.90;;;;;;5048254;28;19917;-61
2022/03/24 02:23:26;;;;;;;;;;;4.40;99.90;;;;;;5057026;28;19915;-61
2022/03/24 02:25:54;;;;;;;;;;;4.40;99.90;;;;;;5056800;28;19908;-61
2022/03/24 02:28:23;;;;;;;;;;;4.30;99.90;;;;;;5054552;28;20417;-62
2022/03/24 02:30:51;;;;;;;;;;;4.30;99.90;;;;;;5036520;28;20020;-61
2022/03/24 02:33:21;;;;;;;;;;;4.30;99.90;;;;;;5037886;28;19909;-60
2022/03/24 02:35:48;;;;;;;;;;;4.20;99.90;;;;;;5046612;28;19915;-61
2022/03/24 02:38:13;;;;;;;;;;;4.10;99.90;;;;;;5054198;28;19909;-60
2022/03/24 02:40:39;;;;;;;;;;;4.00;99.90;;;;;;5035138;28;19909;-61
2022/03/24 02:43:05;;;;;;;;;;;4.00;99.90;;;;;;5057881;28;19909;-60
2022/03/24 02:45:30;;;;;;;;;;;3.90;99.90;;;;;;5038346;28;20324;-61
2022/03/24 02:47:56;;;;;;;;;;;3.90;99.90;;;;;;5035282;28;19917;-62
2022/03/24 02:50:22;;;;;;;;;;;4.00;99.90;;;;;;5056467;28;19916;-60
2022/03/24 02:52:48;;;;;;;;;;;4.10;99.90;;;;;;5054045;28;19935;-59
2022/03/24 02:55:13;;;;;;;;;;;4.20;99.90;;;;;;5056911;28;19987;-60
2022/03/24 02:57:39;;;;;;;;;;;4.20;99.90;;;;;;5063355;28;19947;-60
2022/03/24 03:00:06;;;;;;;;;;;4.20;99.90;;;;;;5054436;28;19939;-60
2022/03/24 03:02:32;;;;;;;;;;;4.20;99.90;;;;;;5058046;28;20278;-61
2022/03/24 03:04:58;;;;;;;;;;;4.20;99.90;;;;;;5051232;28;19909;-61
2022/03/24 03:07:23;;;;;;;;;;;4.10;99.90;;;;;;5055020;28;19917;-61
2022/03/24 03:09:49;;;;;;;;;;;4.10;99.90;;;;;;5061379;28;19916;-59
2022/03/24 03:12:16;;;;;;;;;;;4.10;99.90;;;;;;5052678;28;20007;-60
2022/03/24 03:14:42;;;;;;;;;;;4.10;99.90;;;;;;5054800;28;19998;-60
2022/03/24 03:17:07;;;;;;;;;;;4.20;99.90;;;;;;5043378;28;20365;-61
2022/03/24 03:19:34;;;;;;;;;;;4.20;99.90;;;;;;5055644;28;19909;-60
2022/03/24 03:21:59;;;;;;;;;;;4.10;99.90;;;;;;5056267;28;19916;-60
2022/03/24 03:24:25;;;;;;;;;;;4.10;99.90;;;;;;5052461;28;19933;-60
2022/03/24 03:26:52;;;;;;;;;;;4.00;99.90;;;;;;5059900;28;20408;-60
2022/03/24 03:29:18;;;;;;;;;;;4.00;99.90;;;;;;5057639;28;20354;-61
2022/03/24 03:31:44;;;;;;;;;;;3.90;99.90;;;;;;5055247;28;20367;-60
2022/03/24 03:34:10;;;;;;;;;;;3.80;99.90;;;;;;5060990;28;19976;-60
2022/03/24 03:36:37;;;;;;;;;;;3.80;99.90;;;;;;5038764;28;19916;-60
2022/03/24 03:39:03;;;;;;;;;;;3.70;99.90;;;;;;5056809;28;19924;-61
2022/03/24 03:41:29;;;;;;;;;;;3.80;99.90;;;;;;5050954;28;19915;-61
2022/03/24 03:43:55;;;;;;;;;;;3.90;99.90;;;;;;5056572;28;20350;-61
2022/03/24 03:46:21;;;;;;;;;;;4.00;99.90;;;;;;5048738;28;19917;-60
2022/03/24 03:48:47;;;;;;;;;;;4.00;99.90;;;;;;5056780;28;19964;-62
2022/03/24 03:51:13;;;;;;;;;;;4.00;99.90;;;;;;5053519;28;19912;-60
2022/03/24 03:53:39;;;;;;;;;;;4.10;99.90;;;;;;5047907;28;19992;-61
2022/03/24 03:56:05;;;;;;;;;;;4.20;99.90;;;;;;5054355;28;20312;-61
2022/03/24 03:58:31;;;;;;;;;;;4.30;99.90;;;;;;5054520;28;19923;-61
2022/03/24 04:00:56;;;;;;;;;;;4.10;99.90;;;;;;5050547;28;19913;-60
2022/03/24 04:03:23;;;;;;;;;;;4.00;99.90;;;;;;5042908;28;19951;-61
2022/03/24 04:05:59;;;;;;;;;;;4.10;99.90;;;;;;5048448;28;19908;-61
2022/03/24 04:08:25;;;;;;;;;;;4.10;99.90;;;;;;5027904;28;19953;-61
2022/03/24 04:10:50;;;;;;;;;;;3.90;99.90;;;;;;5054112;28;20358;-60
2022/03/24 04:13:18;;;;;;;;;;;3.90;99.90;;;;;;5048203;28;20004;-60
2022/03/24 04:15:44;;;;;;;;;;;3.90;99.90;;;;;;5055428;28;19904;-59
2022/03/24 04:18:09;;;;;;;;;;;4.00;99.90;;;;;;5055439;28;19955;-62
2022/03/24 04:20:36;;;;;;;;;;;4.00;99.90;;;;;;5057253;28;19904;-61
2022/03/24 04:23:02;;;;;;;;;;;4.00;99.90;;;;;;5051507;28;19908;-60
2022/03/24 04:25:28;;;;;;;;;;;3.80;99.90;;;;;;5048637;28;19912;-61
2022/03/24 04:27:54;;;;;;;;;;;3.70;99.90;;;;;;5048010;28;19996;-61
2022/03/24 04:30:19;;;;;;;;;;;3.60;99.90;;;;;;5030598;28;19916;-61
2022/03/24 04:32:45;;;;;;;;;;;3.70;99.90;;;;;;5053595;28;19916;-61
2022/03/24 04:35:11;;;;;;;;;;;3.70;99.90;;;;;;5056108;28;20000;-59
2022/03/24 04:37:37;;;;;;;;;;;3.50;99.90;;;;;;5056201;28;19908;-61
2022/03/24 04:40:04;;;;;;;;;;;3.50;99.90;;;;;;5052897;28;19904;-60
2022/03/24 04:42:30;;;;;;;;;;;3.50;99.90;;;;;;5056510;28;19959;-61
2022/03/24 04:44:56;;;;;;;;;;;3.50;99.90;;;;;;5058891;28;19967;-61
2022/03/24 04:47:22;;;;;;;;;;;3.50;99.90;;;;;;5061421;28;19951;-61
2022/03/24 04:49:48;;;;;;;;;;;3.50;99.90;;;;;;5059441;28;20003;-60
2022/03/24 04:52:13;;;;;;;;;;;3.60;99.90;;;;;;5055984;28;19934;-61
2022/03/24 04:54:39;;;;;;;;;;;3.60;99.90;;;;;;5059732;28;19909;-60
2022/03/24 04:57:05;;;;;;;;;;;3.50;99.90;;;;;;5056090;28;19908;-60
2022/03/24 04:59:31;;;;;;;;;;;3.40;99.90;;;;;;5040876;28;19921;-61
2022/03/24 05:01:56;;;;;;;;;;;3.30;99.90;;;;;;5037480;28;20358;-61
2022/03/24 05:04:23;;;;;;;;;;;3.30;99.90;;;;;;5028499;28;19916;-60
2022/03/24 05:06:49;;;;;;;;;;;3.30;99.90;;;;;;5025334;28;20007;-61
2022/03/24 05:09:15;;;;;;;;;;;3.30;99.90;;;;;;5035638;28;19945;-60
2022/03/24 05:11:40;;;;;;;;;;;3.40;99.90;;;;;;5027654;28;20160;-62
2022/03/24 05:14:08;;;;;;;;;;;3.40;99.90;;;;;;5032517;28;19986;-62
2022/03/24 05:16:33;;;;;;;;;;;3.30;99.90;;;;;;5034324;28;19937;-60
2022/03/24 05:18:59;;;;;;;;;;;3.20;99.90;;;;;;5033193;28;20369;-60
2022/03/24 05:21:25;;;;;;;;;;;3.20;99.90;;;;;;5042086;28;20389;-60
2022/03/24 05:23:50;;;;;;;;;;;3.30;99.90;;;;;;5038351;28;19909;-60
2022/03/24 05:26:20;;;;;;;;;;;3.30;99.90;;;;;;5034714;28;19909;-60
2022/03/24 05:28:46;;;;;;;;;;;3.40;99.90;;;;;;5036390;28;20007;-59
2022/03/24 05:31:12;;;;;;;;;;;3.40;99.90;;;;;;5037789;28;19908;-60
2022/03/24 05:33:38;;;;;;;;;;;3.40;99.90;;;;;;5037084;28;19913;-61
2022/03/24 05:36:04;;;;;;;;;;;3.40;99.90;;;;;;5035322;28;19910;-60
2022/03/24 05:38:29;;;;;;;;;;;3.40;99.90;;;;;;5041408;28;19915;-61
2022/03/24 05:40:55;;;;;;;;;;;3.30;99.90;;;;;;5023304;28;19909;-60
2022/03/24 05:43:20;;;;;;;;;;;3.30;99.90;;;;;;5038255;28;20444;-60
2022/03/24 05:45:46;;;;;;;;;;;3.30;99.90;;;;;;5034968;28;19909;-60
2022/03/24 05:48:12;;;;;;;;;;;3.20;99.90;;;;;;5030907;28;19916;-61
2022/03/24 05:50:40;;;;;;;;;;;3.10;99.90;;;;;;5033213;28;19909;-64
2022/03/24 05:53:08;;;;;;;;;;;3.10;99.90;;;;;;5037260;28;19909;-60
2022/03/24 05:55:36;;;;;;;;;;;3.00;99.90;;;;;;5036973;28;19986;-61
2022/03/24 05:58:02;;;;;;;;;;;3.10;99.90;;;;;;5034046;28;19909;-60
2022/03/24 06:00:27;;;;;;;;;;;3.10;99.90;;;;;;5053142;28;19999;-60
2022/03/24 06:02:54;;;;;;;;;;;3.00;99.90;;;;;;5038343;28;19944;-60
2022/03/24 06:05:20;;;;;;;;;;;2.90;99.90;;;;;;5052943;28;19963;-61
2022/03/24 06:07:46;;;;;;;;;;;2.90;99.90;;;;;;5044336;28;19913;-61
2022/03/24 06:10:12;;;;;;;;;;;3.00;99.90;;;;;;5057004;28;20278;-61
2022/03/24 06:12:41;;;;;;;;;;;3.00;99.90;;;;;;5043538;28;19905;-61
2022/03/24 06:15:07;;;;;;;;;;;3.00;99.90;;;;;;5035707;28;19913;-61
2022/03/24 06:17:33;;;;;;;;;;;3.20;99.90;;;;;;5051988;28;19916;-60
2022/03/24 06:20:01;;;;;;;;;;;3.20;99.90;;;;;;5037825;28;19905;-60
2022/03/24 06:22:27;;;;;;;;;;;3.20;99.90;;;;;;5056789;28;19946;-60
2022/03/24 06:24:53;;;;;;;;;;;3.40;99.90;;;;;;5041077;28;20366;-61
2022/03/24 06:27:19;;;;;;;;;;;3.50;99.90;;;;;;5056394;28;19951;-60
2022/03/24 06:29:45;;;;;;;;;;;3.50;99.90;;;;;;5052558;28;19954;-60
2022/03/24 06:32:10;;;;;;;;;;;3.40;99.90;;;;;;5055723;28;19908;-61
2022/03/24 06:34:36;;;;;;;;;;;3.40;99.90;;;;;;5057601;28;19927;-61
2022/03/24 06:37:02;;;;;;;;;;;3.40;99.90;;;;;;5056244;28;20294;-61
2022/03/24 06:39:28;;;;;;;;;;;3.50;99.90;;;;;;5055400;28;19905;-60
2022/03/24 06:41:55;;;;;;;;;;;3.50;99.90;;;;;;5050151;28;19916;-61
2022/03/24 06:44:21;;;;;;;;;;;3.60;99.90;;;;;;5052621;28;19908;-61
2022/03/24 06:46:46;;;;;;;;;;;3.70;99.90;;;;;;5049418;28;20469;-62
2022/03/24 06:49:12;;;;;;;;;;;3.70;99.90;;;;;;5053285;28;20424;-61
2022/03/24 06:51:38;;;;;;;;;;;3.60;99.90;;;;;;5026845;28;19905;-61
2022/03/24 06:54:05;;;;;;;;;;;3.70;99.90;;;;;;5051281;28;19931;-62
2022/03/24 06:56:30;;;;;;;;;;;3.70;99.90;;;;;;5052851;28;19908;-61
2022/03/24 06:58:56;;;;;;;;;;;3.70;99.90;;;;;;5051234;28;19931;-61
2022/03/24 07:01:21;;;;;;;;;;;3.70;99.90;;;;;;5052158;28;19909;-61
2022/03/24 07:03:47;;;;;;;;;;;3.70;99.90;;;;;;5048873;28;19908;-61
2022/03/24 07:06:13;;;;;;;;;;;3.80;99.90;;;;;;5051551;28;19932;-61
2022/03/24 07:08:39;;;;;;;;;;;3.90;99.90;;;;;;5054088;28;20362;-62
2022/03/24 07:11:05;;;;;;;;;;;3.90;99.90;;;;;;5033842;28;19909;-61
2022/03/24 07:13:31;;;;;;;;;;;3.80;99.90;;;;;;5049378;28;19963;-62
2022/03/24 07:15:56;;;;;;;;;;;3.80;99.90;;;;;;5052440;28;19944;-66
2022/03/24 07:18:25;;;;;;;;;;;3.80;99.90;;;;;;5049842;28;19954;-62
2022/03/24 07:20:51;;;;;;;;;;;3.80;99.90;;;;;;5045296;28;19909;-62
2022/03/24 07:23:17;;;;;;;;;;;3.80;99.90;;;;;;5031725;28;20015;-61
2022/03/24 07:25:43;;;;;;;;;;;3.80;99.90;;;;;;5046427;28;19940;-60
2022/03/24 07:28:10;;;;;;;;;;;3.80;99.90;;;;;;5053450;28;19924;-62
2022/03/24 07:30:36;;;;;;;;;;;3.90;99.90;;;;;;5049756;28;19916;-61
2022/03/24 07:33:02;;;;;;;;;;;3.90;99.90;;;;;;5049946;28;20258;-61
2022/03/24 07:35:29;;;;;;;;;;;4.00;99.90;;;;;;5053409;28;20453;-61
2022/03/24 07:37:54;;;;;;;;;;;4.10;99.90;;;;;;5030970;28;19909;-61
2022/03/24 07:40:22;;;;;;;;;;;4.10;99.90;;;;;;5031380;28;19919;-62
2022/03/24 07:42:49;;;;;;;;;;;4.20;99.90;;;;;;5051275;28;19956;-62
2022/03/24 07:45:14;;;;;;;;;;;4.30;99.90;;;;;;5050748;28;20330;-64
2022/03/24 07:48:00;;;;;;;;;;;4.40;99.90;;;;;;5048106;28;19927;-61
2022/03/24 07:50:25;;;;;;;;;;;4.40;99.90;;;;;;5049598;28;19909;-61
2022/03/24 07:52:51;;;;;;;;;;;4.60;99.90;;;;;;5051290;28;19962;-62
2022/03/24 07:55:18;;;;;;;;;;;4.70;99.90;;;;;;5048222;28;20320;-62
2022/03/24 07:57:44;;;;;;;;;;;4.80;99.90;;;;;;5046137;28;19909;-61
2022/03/24 08:00:10;;;;;;;;;;;5.00;99.90;;;;;;5045503;28;19939;-62
2022/03/24 08:02:43;;;;;;;;;;;5.10;99.90;;;;;;5053069;28;19913;-62
2022/03/24 08:05:08;;;;;;;;;;;5.20;99.90;;;;;;5052616;28;19915;-62
2022/03/24 08:07:34;;;;;;;;;;;5.40;99.90;;;;;;5052138;28;19917;-61
2022/03/24 08:09:59;;;;;;;;;;;5.50;99.90;;;;;;5055946;28;20011;-62
2022/03/24 08:12:25;;;;;;;;;;;5.70;99.90;;;;;;5052793;28;19923;-61
2022/03/24 08:14:51;;;;;;;;;;;5.90;99.90;;;;;;5034513;28;19917;-62
2022/03/24 08:17:16;;;;;;;;;;;6.10;99.90;;;;;;5050394;28;20003;-61
2022/03/24 08:19:42;;;;;;;;;;;6.30;99.90;;;;;;5060247;28;19909;-61
2022/03/24 08:22:08;;;;;;;;;;;6.40;99.90;;;;;;5061179;28;19908;-62
2022/03/24 08:24:34;;;;;;;;;;;6.50;99.90;;;;;;5061168;28;19959;-62
2022/03/24 08:26:59;;;;;;;;;;;6.60;99.90;;;;;;5043378;28;19917;-61
2022/03/24 08:29:25;;;;;;;;;;;6.70;99.90;;;;;;5061725;28;20304;-60
2022/03/24 08:31:50;;;;;;;;;;;6.80;99.90;;;;;;5061561;28;19951;-62
2022/03/24 08:34:16;;;;;;;;;;;7.00;99.90;;;;;;5062408;28;19908;-63
2022/03/24 08:36:42;;;;;;;;;;;7.10;99.90;;;;;;5063647;28;19908;-62
2022/03/24 08:39:07;;;;;;;;;;;7.20;99.90;;;;;;5062301;28;19908;-62
2022/03/24 08:41:33;;;;;;;;;;;7.40;99.90;;;;;;5064262;28;19909;-62
2022/03/24 08:43:58;;;;;;;;;;;7.60;99.90;;;;;;5063263;28;20281;-62
2022/03/24 08:46:25;;;;;;;;;;;7.60;99.90;;;;;;5055229;28;20364;-61
2022/03/24 08:48:51;;;;;;;;;;;7.70;99.90;;;;;;5057183;28;19916;-62
2022/03/24 08:51:17;;;;;;;;;;;7.80;99.90;;;;;;5050576;28;20019;-63
2022/03/24 08:53:43;;;;;;;;;;;7.90;99.90;;;;;;5057034;28;19909;-62
2022/03/24 08:56:10;;;;;;;;;;;8.10;99.90;;;;;;5057069;28;19948;-62
2022/03/24 08:58:36;;;;;;;;;;;8.20;99.90;;;;;;5052229;28;19916;-64
2022/03/24 09:01:01;;;;;;;;;;;8.40;99.90;;;;;;5046576;28;19919;-63
2022/03/24 09:03:27;;;;;;;;;;;8.40;99.90;;;;;;5057284;28;19947;-62
2022/03/24 09:05:53;;;;;;;;;;;8.50;99.90;;;;;;5056073;28;19987;-62
2022/03/24 09:08:18;;;;;;;;;;;8.70;99.90;;;;;;5055507;28;19920;-62
2022/03/24 09:10:47;;;;;;;;;;;8.90;99.90;;;;;;5047755;28;19905;-61
2022/03/24 09:13:12;;;;;;;;;;;9.10;99.90;;;;;;5023343;28;19913;-63
2022/03/24 09:15:38;;;;;;;;;;;9.40;99.90;;;;;;5054775;28;19913;-61
2022/03/24 09:18:05;;;;;;;;;;;9.50;99.90;;;;;;5057995;28;19908;-62
2022/03/24 09:20:30;;;;;;;;;;;9.70;99.90;;;;;;5044998;28;19912;-62
2022/03/24 09:22:56;;;;;;;;;;;9.70;99.90;;;;;;5050037;28;19909;-62
2022/03/24 09:25:21;;;;;;;;;;;9.80;99.90;;;;;;5052383;28;20004;-61
2022/03/24 09:27:47;;;;;;;;;;;9.90;99.90;;;;;;5057473;28;19913;-61
2022/03/24 09:30:15;;;;;;;;;;;10.10;99.90;;;;;;5045570;28;19915;-65
2022/03/24 09:32:41;;;;;;;;;;;10.20;99.90;;;;;;5051266;28;19912;-62
2022/03/24 09:35:07;;;;;;;;;;;10.30;99.90;;;;;;5052638;28;19951;-62
2022/03/24 09:37:33;;;;;;;;;;;10.40;99.90;;;;;;5058128;28;19995;-62
2022/03/24 09:40:02;;;;;;;;;;;10.60;99.90;;;;;;5052527;28;19904;-62
2022/03/24 09:42:31;;;;;;;;;;;10.60;99.90;;;;;;5044796;28;19913;-61
2022/03/24 09:44:58;;;;;;;;;;;10.80;99.90;;;;;;5043717;28;20384;-63
2022/03/24 09:47:26;;;;;;;;;;;11.00;99.90;;;;;;5049485;28;19936;-62
2022/03/24 09:49:52;;;;;;;;;;;11.20;99.90;;;;;;5054098;28;19948;-62
2022/03/24 09:52:17;;;;;;;;;;;11.40;99.90;;;;;;5053896;28;20278;-63
2022/03/24 09:54:45;;;;;;;;;;;11.50;99.90;;;;;;5043451;28;19944;-63
2022/03/24 09:57:11;;;;;;;;;;;11.70;99.90;;;;;;5055720;28;19916;-63
2022/03/24 09:59:37;;;;;;;;;;;11.80;99.90;;;;;;5030829;28;19916;-62
2022/03/24 10:02:03;;;;;;;;;;;12.10;99.90;;;;;;5052742;28;20286;-62
2022/03/24 10:04:48;;;;;;;;;;;12.10;99.90;;;;;;5052089;28;19916;-62
2022/03/24 10:07:14;;;;;;;;;;;12.20;99.90;;;;;;5049982;28;20370;-62
2022/03/24 10:09:41;;;;;;;;;;;12.30;99.90;;;;;;5054488;28;19916;-61
2022/03/24 10:12:08;;;;;;;;;;;12.50;99.90;;;;;;5052651;28;19962;-62
2022/03/24 10:14:34;;;;;;;;;;;12.70;99.90;;;;;;5055820;28;19908;-62
2022/03/24 10:17:10;;;;;;;;;;;13.00;99.90;;;;;;5035492;28;19920;-61
2022/03/24 10:19:36;;;;;;;;;;;13.00;99.90;;;;;;5047056;28;19963;-62
2022/03/24 10:22:09;;;;;;;;;;;13.20;99.90;;;;;;5049961;28;19908;-62
2022/03/24 10:24:42;;;;;;;;;;;13.30;99.80;;;;;;5027796;28;19935;-63
2022/03/24 10:27:07;;;;;;;;;;;13.30;99.40;;;;;;5052156;28;19917;-62
2022/03/24 10:29:34;;;;;;;;;;;13.50;99.20;;;;;;5045609;28;20343;-61
2022/03/24 10:32:00;;;;;;;;;;;13.50;99.70;;;;;;5048765;28;19984;-63
2022/03/24 10:34:33;;;;;;;;;;;13.60;99.70;;;;;;5052095;28;19915;-63
2022/03/24 10:37:03;;;;;;;;;;;13.70;99.60;;;;;;5054468;28;19921;-62
2022/03/24 10:39:29;;;;;;;;;;;13.90;99.50;;;;;;5052693;28;19947;-62
2022/03/24 10:42:14;;;;;;;;;;;14.00;99.10;;;;;;5052406;28;19909;-63
2022/03/24 10:44:58;;;;;;;;;;;14.10;98.50;;;;;;5053311;28;20309;-63
2022/03/24 10:47:42;;;;;;;;;;;14.20;97.00;;;;;;5049122;28;19928;-61
2022/03/24 10:50:23;;;;;;;;;;;14.20;96.50;;;;;;5051269;28;19951;-63
2022/03/24 10:52:49;;;;;;;;;;;14.30;96.70;;;;;;5050776;28;19955;-61
2022/03/24 10:55:21;;;;;;;;;;;14.50;96.60;;;;;;5050912;28;20450;-62
2022/03/24 10:57:47;;;;;;;;;;;14.60;96.50;;;;;;5035287;28;19908;-62
2022/03/24 11:00:12;;;;;;;;;;;14.70;96.40;;;;;;5047113;28;20462;-63
2022/03/24 11:02:40;;;;;;;;;;;14.80;95.70;;;;;;5052450;28;19979;-62
2022/03/24 11:05:12;;;;;;;;;;;14.70;95.20;;;;;;5042384;28;20390;-62
2022/03/24 11:07:38;;;;;;;;;;;14.80;95.30;;;;;;5049951;28;19921;-61
2022/03/24 11:10:13;;;;;;;;;;;14.90;95.00;;;;;;5050547;28;19935;-62
2022/03/24 11:12:40;;;;;;;;;;;15.20;94.40;;;;;;5030711;28;19923;-64
2022/03/24 11:15:07;;;;;;;;;;;15.30;94.20;;;;;;5044472;28;19945;-61
2022/03/24 11:17:33;;;;;;;;;;;15.50;94.10;;;;;;5054038;28;19908;-63
2022/03/24 11:20:05;;;;;;;;;;;15.70;93.20;;;;;;5055737;28;20282;-62
2022/03/24 11:22:51;;;;;;;;;;;15.80;93.20;;;;;;5053624;28;19915;-63
2022/03/24 11:25:17;;;;;;;;;;;15.90;92.70;;;;;;5041276;28;20311;-63
2022/03/24 11:27:43;;;;;;;;;;;16.00;92.80;;;;;;5062671;28;19920;-61
2022/03/24 11:30:09;;;;;;;;;;;15.90;93.00;;;;;;5053840;28;20336;-61
2022/03/24 11:32:36;;;;;;;;;;;15.90;92.50;;;;;;5037538;28;20010;-64
2022/03/24 11:35:05;;;;;;;;;;;15.70;92.40;;;;;;5040676;28;19931;-62
2022/03/24 11:37:31;;;;;;;;;;;15.70;92.50;;;;;;5031165;28;20003;-61
2022/03/24 11:40:08;;;;;;;;;;;15.60;92.50;;;;;;5046485;28;19915;-63
2022/03/24 11:42:36;;;;;;;;;;;15.60;92.50;;;;;;5054987;28;19951;-62
2022/03/24 11:45:03;;;;;;;;;;;15.80;91.80;;;;;;5055338;28;19909;-62
2022/03/24 11:47:46;;;;;;;;;;;16.00;91.40;;;;;;5047635;28;19917;-64
2022/03/24 11:50:14;;;;;;;;;;;16.00;91.20;;;;;;5036514;28;20373;-61
2022/03/24 11:52:39;;;;;;;;;;;16.00;91.20;;;;;;5056691;28;19908;-62
2022/03/24 11:55:12;;;;;;;;;;;16.30;90.60;;;;;;5059585;28;20321;-63
2022/03/24 11:57:37;;;;;;;;;;;16.40;90.70;;;;;;5055062;28;19928;-61
2022/03/24 12:00:12;;;;;;;;;;;16.50;90.70;;;;;;5049953;28;19917;-62
2022/03/24 12:02:38;;;;;;;;;;;16.60;90.30;;;;;;5058673;28;19908;-62
2022/03/24 12:05:04;;;;;;;;;;;16.90;90.20;;;;;;5057785;28;19992;-63
2022/03/24 12:07:30;;;;;;;;;;;16.90;89.60;;;;;;5057970;28;20043;-62
2022/03/24 12:10:04;;;;;;;;;;;17.00;87.80;;;;;;5052237;28;20373;-61
2022/03/24 12:12:30;;;;;;;;;;;17.00;88.10;;;;;;5057283;28;19908;-63
2022/03/24 12:14:58;;;;;;;;;;;17.10;87.30;;;;;;5052024;28;19909;-63
2022/03/24 12:17:31;;;;;;;;;;;17.20;87.20;;;;;;5056931;28;19924;-68
2022/03/24 12:19:58;;;;;;;;;;;17.20;85.10;;;;;;5057270;28;20265;-62
2022/03/24 12:22:28;;;;;;;;;;;17.20;83.80;;;;;;5057698;28;19909;-63
2022/03/24 12:25:00;;;;;;;;;;;17.20;83.90;;;;;;5056772;28;19909;-65
2022/03/24 12:27:26;;;;;;;;;;;17.20;84.80;;;;;;5057231;28;19941;-64
2022/03/24 12:30:10;;;;;;;;;;;17.20;82.20;;;;;;5057659;28;19935;-61
2022/03/24 12:32:36;;;;;;;;;;;17.20;82.40;;;;;;5051960;28;20437;-63
2022/03/24 12:35:03;;;;;;;;;;;17.30;83.60;;;;;;5047375;28;19978;-63
2022/03/24 12:37:35;;;;;;;;;;;17.10;83.30;;;;;;5038962;28;19927;-61
2022/03/24 12:40:07;;;;;;;;;;;17.10;82.10;;;;;;5055589;28;20350;-62
2022/03/24 12:42:38;;;;;;;;;;;17.30;82.80;;;;;;5029566;28;20268;-62
2022/03/24 12:45:04;;;;;;;;;;;17.30;81.30;;;;;;5044998;28;19916;-62
2022/03/24 12:47:43;;;;;;;;;;;17.40;78.30;;;;;;5036389;28;19917;-63
2022/03/24 12:50:09;;;;;;;;;;;17.40;79.10;;;;;;5044023;28;19908;-63
2022/03/24 12:52:54;;;;;;;;;;;17.40;77.90;;;;;;5038570;28;19909;-63
2022/03/24 12:55:27;;;;;;;;;;;17.20;78.50;;;;;;5054573;28;20416;-62
2022/03/24 12:57:53;;;;;;;;;;;17.40;78.80;;;;;;5057597;28;19908;-64
2022/03/24 13:00:19;;;;;;;;;;;17.60;78.00;;;;;;5045049;28;20007;-63
2022/03/24 13:02:45;;;;;;;;;;;17.60;77.00;;;;;;5055082;28;19936;-61
2022/03/24 13:05:13;;;;;;;;;;;17.70;77.70;;;;;;5055571;28;19908;-63
2022/03/24 13:07:39;;;;;;;;;;;17.70;79.30;;;;;;5047337;28;20393;-62
2022/03/24 13:10:07;;;;;;;;;;;17.90;78.10;;;;;;5053109;28;19909;-63
2022/03/24 13:12:34;;;;;;;;;;;18.00;77.60;;;;;;5050311;28;19952;-62
2022/03/24 13:15:01;;;;;;;;;;;18.00;77.80;;;;;;5056376;28;20332;-62
2022/03/24 13:17:27;;;;;;;;;;;18.00;78.20;;;;;;5057152;28;19996;-64
2022/03/24 13:19:52;;;;;;;;;;;17.90;78.10;;;;;;5051929;28;19909;-62
2022/03/24 13:22:19;;;;;;;;;;;18.00;77.80;;;;;;5042722;28;20278;-63
2022/03/24 13:24:54;;;;;;;;;;;18.00;78.30;;;;;;5037760;28;19905;-63
2022/03/24 13:27:20;;;;;;;;;;;17.90;77.50;;;;;;5054930;28;19921;-62
2022/03/24 13:29:46;;;;;;;;;;;17.90;77.90;;;;;;5052108;28;20369;-61
2022/03/24 13:32:15;;;;;;;;;;;17.80;78.70;;;;;;5054610;28;20373;-62
2022/03/24 13:34:47;;;;;;;;;;;17.80;79.70;;;;;;5044976;28;20336;-63
2022/03/24 13:37:17;;;;;;;;;;;18.00;78.70;;;;;;5055365;28;19996;-63
2022/03/24 13:39:47;;;;;;;;;;;18.10;79.40;;;;;;5035277;28;20267;-62
2022/03/24 13:42:13;;;;;;;;;;;18.30;77.60;;;;;;5042997;28;19909;-61
2022/03/24 13:44:38;;;;;;;;;;;18.40;77.40;;;;;;5055706;28;19908;-63
2022/03/24 13:47:05;;;;;;;;;;;18.20;77.60;;;;;;5036778;28;19905;-62
2022/03/24 13:49:31;;;;;;;;;;;18.20;77.50;;;;;;5055486;28;19909;-61
2022/03/24 13:51:58;;;;;;;;;;;18.20;76.50;;;;;;5050613;28;19923;-63
2022/03/24 13:54:23;;;;;;;;;;;18.10;77.80;;;;;;5057510;28;19908;-62
2022/03/24 13:56:49;;;;;;;;;;;18.30;77.20;;;;;;5055578;28;19951;-62
2022/03/24 13:59:15;;;;;;;;;;;18.60;76.50;;;;;;5034478;28;20334;-62
2022/03/24 14:01:40;;;;;;;;;;;18.90;76.10;;;;;;5036680;28;19943;-63
2022/03/24 14:04:18;;;;;;;;;;;18.90;75.00;;;;;;5032946;28;19999;-62
2022/03/24 14:07:03;;;;;;;;;;;18.80;76.70;;;;;;5030819;28;19963;-62
2022/03/24 14:09:29;;;;;;;;;;;18.90;74.50;;;;;;5036671;28;20405;-63
2022/03/24 14:12:05;;;;;;;;;;;18.80;73.30;;;;;;5018946;28;19940;-62
2022/03/24 14:14:30;;;;;;;;;;;18.70;72.20;;;;;;5036944;28;19951;-63
2022/03/24 14:16:56;;;;;;;;;;;18.80;72.90;;;;;;5029129;28;19910;-62
2022/03/24 14:19:27;;;;;;;;;;;18.80;73.50;;;;;;5033131;28;19909;-61
2022/03/24 14:21:53;;;;;;;;;;;18.90;73.10;;;;;;5034363;28;19915;-62
2022/03/24 14:24:29;;;;;;;;;;;19.00;72.40;;;;;;5036014;28;19968;-62
2022/03/24 14:27:05;;;;;;;;;;;19.10;71.10;;;;;;5035645;28;19909;-62